createdAt,value
2019-02-10T00:04:06.827Z,63.77
2019-02-10T00:06:24.496Z,63.90
2019-02-10T00:08:30.479Z,63.84
2019-02-10T00:10:41.402Z,63.86
2019-02-10T00:13:32.153Z,63.77
2019-02-10T00:15:43.003Z,63.84
2019-02-10T00:17:53.800Z,63.93
2019-02-10T00:20:04.714Z,64.04
2019-02-10T00:22:16.678Z,64.27
2019-02-10T00:24:28.249Z,64.49
2019-02-10T00:26:39.064Z,64.64
2019-02-10T00:28:49.858Z,64.86
2019-02-10T00:31:00.650Z,65.09
2019-02-10T00:33:11.468Z,65.15
2019-02-10T00:35:22.282Z,65.28
2019-02-10T00:37:33.108Z,65.54
2019-02-10T00:39:43.911Z,65.65
2019-02-10T00:41:54.740Z,65.75
2019-02-10T00:44:05.525Z,66.13
2019-02-10T00:46:16.338Z,65.95
2019-02-10T00:48:27.189Z,66.08
2019-02-10T00:50:37.974Z,65.95
2019-02-10T00:52:48.789Z,66.17
2019-02-10T00:54:59.635Z,66.11
2019-02-10T00:57:10.485Z,66.11
2019-02-10T00:59:21.286Z,66.25
2019-02-10T01:01:32.078Z,66.32
2019-02-10T01:03:42.900Z,65.99
2019-02-10T01:05:53.807Z,66.03
2019-02-10T01:08:04.726Z,65.97
2019-02-10T01:10:57.185Z,65.87
2019-02-10T01:13:08.013Z,65.80
2019-02-10T01:15:18.920Z,65.93
2019-02-10T01:17:29.725Z,65.85
2019-02-10T01:19:40.648Z,65.73
2019-02-10T01:21:51.448Z,65.82
2019-02-10T01:24:02.284Z,65.79
2019-02-10T01:26:13.061Z,65.86
2019-02-10T01:28:23.882Z,65.66
2019-02-10T01:31:16.333Z,65.23
2019-02-10T01:33:27.168Z,64.71
2019-02-10T01:35:37.969Z,64.40
2019-02-10T01:37:48.879Z,64.32
2019-02-10T01:39:59.694Z,64.33
2019-02-10T01:42:10.498Z,64.55
2019-02-10T01:44:21.336Z,64.63
2019-02-10T01:46:32.143Z,64.29
2019-02-10T01:48:42.950Z,64.41
2019-02-10T01:50:53.758Z,64.30
2019-02-10T01:53:04.546Z,64.11
2019-02-10T01:55:15.381Z,63.98
2019-02-10T01:57:26.181Z,64.03
2019-02-10T01:59:37.013Z,64.13
2019-02-10T02:01:47.823Z,63.93
2019-02-10T02:03:58.610Z,63.84
2019-02-10T02:06:09.431Z,63.53
2019-02-10T02:08:20.332Z,63.57
2019-02-10T02:10:31.157Z,63.60
2019-02-10T02:12:41.970Z,63.62
2019-02-10T02:14:52.779Z,63.67
2019-02-10T02:17:03.595Z,63.57
2019-02-10T02:19:14.387Z,63.47
2019-02-10T02:21:25.217Z,63.45
2019-02-10T02:23:36.014Z,63.72
2019-02-10T02:25:46.844Z,63.91
2019-02-10T02:27:57.641Z,63.92
2019-02-10T02:30:50.115Z,63.59
2019-02-10T02:33:00.913Z,63.54
2019-02-10T02:35:11.716Z,63.97
2019-02-10T02:37:22.539Z,63.96
2019-02-10T02:39:33.331Z,63.73
2019-02-10T02:41:44.163Z,63.99
2019-02-10T02:43:54.968Z,64.13
2019-02-10T02:46:05.807Z,64.31
2019-02-10T02:48:16.603Z,64.24
2019-02-10T02:50:27.402Z,64.41
2019-02-10T02:52:38.225Z,64.58
2019-02-10T02:54:49.037Z,64.47
2019-02-10T02:56:59.866Z,64.32
2019-02-10T02:59:10.725Z,64.16
2019-02-10T03:01:21.542Z,64.08
2019-02-10T03:03:32.343Z,63.97
2019-02-10T03:05:43.143Z,63.93
2019-02-10T03:07:53.973Z,63.74
2019-02-10T03:10:46.446Z,63.59
2019-02-10T03:12:57.272Z,63.42
2019-02-10T03:15:08.178Z,63.32
2019-02-10T03:17:18.995Z,63.03
2019-02-10T03:19:29.790Z,62.92
2019-02-10T03:21:40.587Z,62.98
2019-02-10T03:23:51.428Z,62.81
2019-02-10T03:26:02.234Z,62.52
2019-02-10T03:28:13.061Z,62.55
2019-02-10T03:30:23.950Z,62.68
2019-02-10T03:32:34.804Z,62.43
2019-02-10T03:34:45.752Z,62.41
2019-02-10T03:36:56.563Z,62.21
2019-02-10T03:39:07.387Z,62.11
2019-02-10T03:41:18.172Z,62.02
2019-02-10T03:44:10.642Z,61.64
2019-02-10T03:46:21.562Z,61.52
2019-02-10T03:48:32.377Z,61.40
2019-02-10T03:50:43.170Z,61.49
2019-02-10T03:52:53.999Z,61.26
2019-02-10T03:55:46.461Z,61.25
2019-02-10T03:57:57.370Z,61.33
2019-02-10T04:00:49.850Z,60.93
2019-02-10T04:03:00.680Z,60.83
2019-02-10T04:05:11.478Z,60.90
2019-02-10T04:07:22.278Z,60.86
2019-02-10T04:09:33.107Z,60.80
2019-02-10T04:11:43.936Z,60.85
2019-02-10T04:13:54.714Z,60.95
2019-02-10T04:16:05.506Z,60.84
2019-02-10T04:18:16.308Z,60.99
2019-02-10T04:20:27.132Z,61.06
2019-02-10T04:22:37.935Z,60.99
2019-02-10T04:24:48.771Z,60.98
2019-02-10T04:26:59.561Z,60.47
2019-02-10T04:29:10.409Z,60.56
2019-02-10T04:31:21.220Z,60.48
2019-02-10T04:33:32.017Z,60.48
2019-02-10T04:35:42.909Z,61.08
2019-02-10T04:37:53.723Z,60.96
2019-02-10T04:40:26.331Z,60.85
2019-02-10T04:42:37.135Z,60.72
2019-02-10T04:44:48.940Z,60.49
2019-02-10T04:47:00.676Z,60.20
2019-02-10T04:52:03.718Z,60.26
2019-02-10T04:54:14.525Z,60.49
2019-02-10T04:56:25.338Z,60.49
2019-02-10T04:58:36.125Z,60.46
2019-02-10T05:03:04.337Z,60.88
2019-02-10T05:05:15.138Z,60.73
2019-02-10T05:07:25.946Z,60.83
2019-02-10T05:09:36.867Z,61.13
2019-02-10T05:11:47.676Z,61.04
2019-02-10T05:13:58.461Z,61.18
2019-02-10T05:16:09.271Z,61.39
2019-02-10T05:18:20.103Z,61.19
2019-02-10T05:20:30.881Z,61.21
2019-02-10T05:22:41.697Z,61.02
2019-02-10T05:24:52.490Z,60.92
2019-02-10T05:27:03.420Z,61.03
2019-02-10T05:29:14.206Z,61.05
2019-02-10T05:31:25.002Z,60.83
2019-02-10T05:33:35.813Z,60.91
2019-02-10T05:35:46.611Z,60.53
2019-02-10T05:38:03.899Z,60.60
2019-02-10T05:40:10.288Z,60.86
2019-02-10T05:42:21.296Z,60.94
2019-02-10T05:44:32.086Z,61.02
2019-02-10T05:46:42.887Z,61.18
2019-02-10T05:48:53.701Z,61.26
2019-02-10T05:51:04.508Z,60.95
2019-02-10T05:53:15.340Z,60.84
2019-02-10T05:55:26.160Z,60.79
2019-02-10T05:57:36.986Z,60.55
2019-02-10T05:59:47.796Z,60.82
2019-02-10T06:02:40.261Z,60.66
2019-02-10T06:04:51.087Z,60.52
2019-02-10T06:07:43.528Z,60.57
2019-02-10T06:09:54.345Z,60.35
2019-02-10T06:12:05.137Z,60.37
2019-02-10T06:14:15.967Z,60.08
2019-02-10T06:16:26.767Z,60.33
2019-02-10T06:18:37.589Z,60.26
2019-02-10T06:20:48.375Z,60.19
2019-02-10T06:22:59.194Z,60.17
2019-02-10T06:25:10.021Z,60.31
2019-02-10T06:27:20.796Z,59.84
2019-02-10T06:29:31.622Z,59.94
2019-02-10T06:31:42.409Z,59.67
2019-02-10T06:33:53.265Z,59.35
2019-02-10T06:36:04.043Z,59.25
2019-02-10T06:38:22.323Z,59.52
2019-02-10T06:40:27.931Z,59.54
2019-02-10T06:42:38.806Z,59.69
2019-02-10T06:44:49.625Z,59.66
2019-02-10T06:47:00.442Z,59.02
2019-02-10T06:49:11.258Z,58.79
2019-02-10T06:51:22.070Z,58.85
2019-02-10T06:53:34.708Z,59.08
2019-02-10T06:55:45.622Z,59.26
2019-02-10T06:57:56.410Z,58.90
2019-02-10T07:00:48.875Z,58.81
2019-02-10T07:06:14.876Z,58.94
2019-02-10T07:08:30.611Z,58.74
2019-02-10T07:10:38.399Z,58.72
2019-02-10T07:12:49.310Z,58.79
2019-02-10T07:15:41.757Z,58.48
2019-02-10T07:18:34.252Z,58.58
2019-02-10T07:20:45.057Z,57.78
2019-02-10T07:25:54.845Z,57.65
2019-02-10T07:28:47.320Z,56.77
2019-02-10T07:31:39.763Z,56.06
2019-02-10T07:34:30.366Z,55.38
2019-02-10T07:37:20.884Z,54.87
2019-02-10T07:40:11.426Z,54.53
2019-02-10T07:43:03.885Z,54.78
2019-02-10T07:45:54.423Z,54.72
2019-02-10T07:48:46.917Z,54.16
2019-02-10T07:51:39.366Z,54.45
2019-02-10T07:54:31.847Z,54.45
2019-02-10T07:57:24.335Z,54.24
2019-02-10T08:00:14.924Z,54.58
2019-02-10T08:03:07.382Z,54.58
2019-02-10T08:05:59.751Z,53.92
2019-02-10T08:08:52.301Z,53.24
2019-02-10T08:11:42.833Z,53.39
2019-02-10T08:14:35.298Z,55.54
2019-02-10T08:17:25.825Z,53.53
2019-02-10T08:20:16.410Z,53.19
2019-02-10T08:23:08.868Z,53.18
2019-02-10T08:25:59.424Z,53.65
2019-02-10T08:28:51.880Z,53.38
2019-02-10T08:31:42.469Z,53.51
2019-02-10T08:34:33.021Z,53.35
2019-02-10T08:37:25.495Z,53.03
2019-02-10T08:40:17.955Z,52.44
2019-02-10T08:43:10.406Z,51.98
2019-02-10T08:46:02.868Z,51.84
2019-02-10T08:48:53.415Z,51.99
2019-02-10T08:51:45.893Z,52.03
2019-02-10T08:53:56.681Z,51.66
2019-02-10T08:56:07.510Z,51.63
2019-02-10T08:58:18.353Z,51.64
2019-02-10T09:00:29.248Z,51.84
2019-02-10T09:02:40.072Z,51.64
2019-02-10T09:04:50.918Z,51.66
2019-02-10T09:07:01.786Z,52.06
2019-02-10T09:09:12.571Z,52.11
2019-02-10T09:11:23.437Z,52.58
2019-02-10T09:13:34.224Z,52.47
2019-02-10T09:15:45.055Z,52.58
2019-02-10T09:17:55.864Z,51.85
2019-02-10T09:20:48.317Z,51.61
2019-02-10T09:22:59.256Z,51.89
2019-02-10T09:25:51.764Z,51.82
2019-02-10T09:28:02.787Z,51.69
2019-02-10T09:30:13.717Z,51.29
2019-02-10T09:32:24.552Z,50.89
2019-02-10T09:34:35.362Z,50.51
2019-02-10T09:36:46.161Z,50.59
2019-02-10T09:38:57.440Z,50.22
2019-02-10T09:41:08.247Z,50.05
2019-02-10T09:43:19.111Z,50.19
2019-02-10T09:45:29.902Z,50.09
2019-02-10T09:47:40.725Z,49.78
2019-02-10T09:49:51.532Z,49.85
2019-02-10T09:52:02.380Z,49.00
2019-02-10T09:54:13.272Z,48.97
2019-02-10T09:56:24.196Z,48.67
2019-02-10T09:58:35.065Z,49.64
2019-02-10T10:00:45.880Z,48.30
2019-02-10T10:02:56.746Z,47.89
2019-02-10T10:05:49.221Z,48.15
2019-02-10T10:08:00.144Z,46.68
2019-02-10T10:10:52.656Z,45.63
2019-02-10T10:13:03.525Z,45.51
2019-02-10T10:15:55.969Z,45.34
2019-02-10T10:18:06.957Z,45.25
2019-02-10T10:20:17.872Z,44.07
2019-02-10T10:22:28.706Z,47.60
2019-02-10T10:24:39.529Z,47.24
2019-02-10T10:26:50.359Z,43.21
2019-02-10T10:29:01.319Z,43.42
2019-02-10T10:31:12.130Z,43.73
2019-02-10T10:33:22.967Z,43.62
2019-02-10T10:35:33.765Z,43.90
2019-02-10T10:37:44.613Z,44.11
2019-02-10T10:39:55.567Z,44.82
2019-02-10T10:42:06.388Z,44.58
2019-02-10T10:44:24.790Z,45.19
2019-02-10T10:46:35.585Z,45.26
2019-02-10T10:48:46.673Z,45.69
2019-02-10T10:50:57.511Z,45.83
2019-02-10T10:53:08.339Z,46.03
2019-02-10T10:55:19.240Z,46.25
2019-02-10T10:57:30.189Z,46.02
2019-02-10T10:59:41.013Z,46.58
2019-02-10T11:04:34.511Z,45.92
2019-02-10T11:06:45.331Z,44.86
2019-02-10T11:09:16.032Z,45.00
2019-02-10T11:11:26.846Z,45.19
2019-02-10T11:13:37.755Z,45.30
2019-02-10T11:15:48.674Z,45.66
2019-02-10T11:17:59.498Z,45.86
2019-02-10T11:20:52.011Z,45.24
2019-02-10T11:23:02.828Z,44.46
2019-02-10T11:25:13.779Z,44.77
2019-02-10T11:27:24.705Z,44.90
2019-02-10T11:29:35.516Z,45.65
2019-02-10T11:31:46.388Z,45.55
2019-02-10T11:33:57.174Z,46.53
2019-02-10T11:36:08.002Z,45.15
2019-02-10T11:38:18.822Z,45.41
2019-02-10T11:40:30.669Z,45.07
2019-02-10T11:42:43.849Z,44.10
2019-02-10T11:44:54.753Z,44.20
2019-02-10T11:47:05.589Z,44.07
2019-02-10T11:49:16.387Z,43.27
2019-02-10T11:51:27.234Z,43.29
2019-02-10T11:53:38.159Z,43.03
2019-02-10T11:55:49.036Z,42.63
2019-02-10T11:57:59.887Z,43.12
2019-02-10T12:00:30.587Z,42.70
2019-02-10T12:02:41.450Z,42.70
2019-02-10T12:04:52.322Z,42.76
2019-02-10T12:07:03.195Z,43.06
2019-02-10T12:09:14.066Z,43.24
2019-02-10T12:11:24.860Z,43.07
2019-02-10T12:13:35.718Z,43.50
2019-02-10T12:21:14.667Z,43.67
2019-02-10T12:28:23.644Z,43.80
2019-02-10T12:30:34.556Z,43.97
2019-02-10T12:35:44.144Z,43.91
2019-02-10T12:37:55.001Z,44.32
2019-02-10T12:40:48.394Z,44.26
2019-02-10T12:42:59.336Z,44.15
2019-02-10T12:45:51.805Z,44.74
2019-02-10T12:48:02.638Z,44.69
2019-02-10T12:50:35.228Z,45.13
2019-02-10T12:52:46.039Z,45.05
2019-02-10T12:54:56.857Z,45.33
2019-02-10T12:57:07.681Z,45.36
2019-02-10T12:59:18.623Z,45.08
2019-02-10T13:01:29.432Z,45.38
2019-02-10T13:03:40.245Z,46.73
2019-02-10T13:05:51.098Z,47.34
2019-02-10T13:08:01.887Z,48.18
2019-02-10T13:10:54.375Z,48.37
2019-02-10T13:13:05.295Z,48.63
2019-02-10T13:15:16.239Z,49.24
2019-02-10T13:17:27.034Z,50.22
2019-02-10T13:19:37.832Z,51.05
2019-02-10T13:21:48.657Z,51.80
2019-02-10T13:23:59.481Z,52.55
2019-02-10T13:26:10.320Z,53.89
2019-02-10T13:28:21.237Z,55.69
2019-02-10T13:30:33.758Z,56.95
2019-02-10T13:32:44.878Z,58.49
2019-02-10T13:34:55.674Z,60.73
2019-02-10T13:37:06.526Z,62.53
2019-02-10T13:39:17.357Z,62.95
2019-02-10T13:41:47.959Z,62.97
2019-02-10T13:43:58.799Z,63.53
2019-02-10T13:46:09.603Z,65.52
2019-02-10T13:48:20.442Z,65.09
2019-02-10T13:52:48.591Z,65.68
2019-02-10T13:54:59.461Z,66.25
2019-02-10T13:57:10.300Z,66.33
2019-02-10T13:59:21.134Z,66.17
2019-02-10T14:01:32.085Z,66.71
2019-02-10T14:03:43.004Z,66.78
2019-02-10T14:05:53.821Z,67.05
2019-02-10T14:08:04.702Z,67.00
2019-02-10T14:10:15.615Z,66.88
2019-02-10T14:12:26.444Z,67.55
2019-02-10T14:14:37.281Z,66.96
2019-02-10T14:16:48.201Z,66.95
2019-02-10T14:18:59.058Z,66.85
2019-02-10T14:21:09.868Z,67.16
2019-02-10T14:23:20.837Z,66.92
2019-02-10T14:25:31.648Z,66.77
2019-02-10T14:30:32.821Z,67.28
2019-02-10T14:32:43.689Z,67.63
2019-02-10T14:34:54.501Z,67.90
2019-02-10T14:37:05.450Z,67.96
2019-02-10T14:39:16.290Z,68.76
2019-02-10T14:41:27.114Z,69.36
2019-02-10T14:43:37.932Z,69.82
2019-02-10T14:45:48.850Z,69.62
2019-02-10T14:47:59.782Z,70.59
2019-02-10T14:50:52.235Z,69.80
2019-02-10T14:53:03.062Z,69.98
2019-02-10T14:55:13.868Z,70.16
2019-02-10T14:57:24.818Z,70.61
2019-02-10T14:59:35.767Z,71.13
2019-02-10T15:01:46.705Z,71.51
2019-02-10T15:03:57.559Z,71.42
2019-02-10T15:06:08.369Z,71.57
2019-02-10T15:08:19.206Z,72.12
2019-02-10T15:10:30.024Z,70.92
2019-02-10T15:12:40.848Z,71.13
2019-02-10T15:14:51.867Z,70.96
2019-02-10T15:17:02.806Z,70.65
2019-02-10T15:19:13.615Z,70.98
2019-02-10T15:21:24.468Z,71.14
2019-02-10T15:23:35.279Z,70.91
2019-02-10T15:25:46.114Z,71.32
2019-02-10T15:27:56.944Z,70.93
2019-02-10T15:30:27.638Z,70.96
2019-02-10T15:32:38.553Z,70.86
2019-02-10T15:34:49.413Z,71.05
2019-02-10T15:37:00.217Z,71.17
2019-02-10T15:39:11.015Z,71.65
2019-02-10T15:41:21.842Z,71.92
2019-02-10T15:43:32.682Z,72.24
2019-02-10T15:45:43.519Z,71.58
2019-02-10T15:47:54.327Z,72.39
2019-02-10T15:50:46.823Z,72.93
2019-02-10T15:52:57.622Z,74.33
2019-02-10T15:55:50.123Z,74.88
2019-02-10T15:58:01.006Z,75.07
2019-02-10T16:00:53.496Z,75.46
2019-02-10T16:03:04.327Z,75.25
2019-02-10T16:05:15.181Z,74.37
2019-02-10T16:07:26.015Z,74.52
2019-02-10T16:09:37.307Z,74.84
2019-02-10T16:11:49.616Z,75.14
2019-02-10T16:14:00.449Z,73.06
2019-02-10T16:16:11.347Z,73.37
2019-02-10T16:18:22.135Z,73.91
2019-02-10T16:20:32.937Z,75.32
2019-02-10T16:22:43.842Z,76.07
2019-02-10T16:24:54.764Z,77.10
2019-02-10T16:27:05.712Z,77.91
2019-02-10T16:29:16.514Z,78.13
2019-02-10T16:31:27.351Z,78.22
2019-02-10T16:33:38.317Z,79.53
2019-02-10T16:35:49.176Z,79.78
2019-02-10T16:38:00.103Z,80.38
2019-02-10T16:40:30.794Z,80.65
2019-02-10T16:42:41.656Z,80.97
2019-02-10T16:44:52.558Z,80.90
2019-02-10T16:47:03.403Z,80.96
2019-02-10T16:49:14.206Z,81.01
2019-02-10T16:51:25.068Z,81.22
2019-02-10T16:53:35.930Z,81.32
2019-02-10T16:55:46.734Z,81.41
2019-02-10T17:00:37.233Z,80.50
2019-02-10T17:02:48.116Z,79.67
2019-02-10T17:04:58.933Z,78.81
2019-02-10T17:07:09.802Z,79.74
2019-02-10T17:09:20.722Z,80.21
2019-02-10T17:11:31.560Z,81.06
2019-02-10T17:13:42.468Z,81.54
2019-02-10T17:15:53.368Z,81.97
2019-02-10T17:18:04.243Z,82.33
2019-02-10T17:20:15.090Z,82.44
2019-02-10T17:22:25.916Z,81.69
2019-02-10T17:24:36.883Z,81.44
2019-02-10T17:26:47.745Z,81.97
2019-02-10T17:28:58.572Z,81.91
2019-02-10T17:31:09.518Z,82.15
2019-02-10T17:33:20.391Z,80.91
2019-02-10T17:35:31.194Z,80.37
2019-02-10T17:37:42.010Z,79.40
2019-02-10T17:39:52.884Z,77.27
2019-02-10T17:42:03.699Z,77.79
2019-02-10T17:44:14.559Z,79.35
2019-02-10T17:46:25.479Z,79.03
2019-02-10T17:48:36.607Z,79.84
2019-02-10T17:50:47.521Z,80.15
2019-02-10T17:52:58.489Z,80.61
2019-02-10T17:57:26.368Z,80.11
2019-02-10T17:59:37.224Z,79.70
2019-02-10T18:01:48.060Z,79.81
2019-02-10T18:03:58.918Z,79.99
2019-02-10T18:06:09.924Z,80.69
2019-02-10T18:08:20.755Z,81.24
2019-02-10T18:11:13.279Z,80.35
2019-02-10T18:13:24.123Z,80.26
2019-02-10T18:15:54.868Z,80.07
2019-02-10T18:18:25.672Z,79.34
2019-02-10T18:23:18.840Z,79.21
2019-02-10T18:25:49.658Z,78.70
2019-02-10T18:33:11.485Z,77.96
2019-02-10T18:42:42.207Z,77.46
2019-02-10T18:45:12.931Z,76.88
2019-02-10T18:50:06.150Z,75.18
2019-02-10T18:52:36.906Z,75.42
2019-02-10T18:55:07.597Z,75.10
2019-02-10T18:57:38.446Z,74.44
2019-02-10T19:00:09.141Z,73.48
2019-02-10T19:05:12.222Z,73.12
2019-02-10T19:07:42.968Z,73.29
2019-02-10T19:12:46.272Z,72.31
2019-02-10T19:15:16.978Z,72.13
2019-02-10T19:20:06.289Z,72.56
2019-02-10T19:22:37.098Z,72.84
2019-02-10T19:25:07.816Z,72.53
2019-02-10T19:27:38.611Z,72.33
2019-02-10T19:32:27.963Z,72.21
2019-02-10T19:39:40.375Z,71.91
2019-02-10T19:42:11.062Z,71.85
2019-02-10T19:47:00.306Z,71.53
2019-02-10T19:49:31.101Z,71.45
2019-02-10T19:52:01.800Z,70.61
2019-02-10T19:54:32.525Z,70.97
2019-02-10T19:57:03.256Z,70.63
2019-02-10T19:59:34.116Z,69.73
2019-02-10T20:02:04.819Z,69.87
2019-02-10T20:09:27.015Z,69.02
2019-02-10T20:12:03.998Z,68.40
2019-02-10T20:14:30.355Z,68.65
2019-02-10T20:24:00.788Z,67.65
2019-02-10T20:26:31.533Z,67.08
2019-02-10T20:31:34.857Z,67.40
2019-02-10T20:33:47.660Z,67.50
2019-02-10T20:38:19.117Z,67.78
2019-02-10T20:43:22.249Z,67.88
2019-02-10T20:45:52.928Z,68.28
2019-02-10T20:57:42.484Z,70.90
2019-02-10T21:00:13.157Z,71.16
2019-02-10T21:02:43.964Z,71.68
2019-02-10T21:05:14.674Z,72.89
2019-02-10T21:10:04.527Z,74.46
2019-02-10T21:12:35.246Z,74.90
2019-02-10T21:15:05.944Z,75.30
2019-02-10T21:17:36.688Z,76.17
2019-02-10T21:27:20.794Z,77.78
2019-02-10T21:29:51.491Z,77.89
2019-02-10T21:32:22.313Z,78.37
2019-02-10T21:34:53.001Z,78.55
2019-02-10T21:37:23.693Z,78.35
2019-02-10T21:44:36.721Z,78.58
2019-02-10T21:47:07.457Z,78.29
2019-02-10T21:49:18.403Z,77.96
2019-02-10T21:51:29.179Z,77.76
2019-02-10T21:53:39.981Z,77.98
2019-02-10T21:55:50.801Z,77.74
2019-02-10T21:58:01.651Z,77.84
2019-02-10T22:02:31.122Z,77.77
2019-02-10T22:04:41.939Z,77.77
2019-02-10T22:06:52.758Z,77.99
2019-02-10T22:09:45.316Z,77.73
2019-02-10T22:11:56.161Z,77.21
2019-02-10T22:14:07.085Z,77.06
2019-02-10T22:16:17.974Z,76.91
2019-02-10T22:18:28.819Z,76.54
2019-02-10T22:20:39.750Z,76.75
2019-02-10T22:22:50.551Z,76.32
2019-02-10T22:25:01.459Z,76.41
2019-02-10T22:27:12.295Z,76.68
2019-02-10T22:29:42.991Z,76.29
2019-02-10T22:31:53.913Z,76.29
2019-02-10T22:34:04.719Z,75.12
2019-02-10T22:38:32.842Z,73.99
2019-02-10T22:40:43.649Z,73.14
2019-02-10T22:42:54.465Z,73.48
2019-02-10T22:45:25.162Z,73.52
2019-02-10T22:47:35.990Z,73.42
2019-02-10T22:49:46.876Z,73.37
2019-02-10T22:51:57.702Z,73.38
2019-02-10T22:54:08.533Z,73.13
2019-02-10T22:56:19.395Z,73.44
2019-02-10T22:58:30.267Z,72.73
2019-02-10T23:01:03.137Z,72.58
2019-02-10T23:03:14.157Z,72.85
2019-02-10T23:05:24.997Z,72.77
2019-02-10T23:07:35.812Z,73.12
2019-02-10T23:09:46.621Z,73.26
2019-02-10T23:11:57.444Z,72.95
2019-02-10T23:14:08.279Z,73.12
2019-02-10T23:16:19.103Z,73.38
2019-02-10T23:18:29.949Z,73.38
2019-02-10T23:20:40.771Z,73.66
2019-02-10T23:22:51.602Z,73.88
2019-02-10T23:25:22.293Z,73.62
2019-02-10T23:27:33.194Z,73.62
2019-02-10T23:29:44.014Z,73.94
2019-02-10T23:31:54.821Z,73.49
2019-02-10T23:34:05.668Z,73.51
2019-02-10T23:36:16.457Z,73.86
2019-02-10T23:38:27.277Z,73.44
2019-02-10T23:40:38.094Z,73.55
2019-02-10T23:42:48.897Z,73.51
2019-02-10T23:44:59.815Z,72.99
2019-02-10T23:47:10.640Z,72.76
2019-02-10T23:49:21.468Z,72.58
2019-02-10T23:51:32.274Z,72.32
2019-02-10T23:53:43.166Z,72.52
2019-02-10T23:55:53.976Z,71.79
2019-02-10T23:58:04.797Z,71.46
